Data for 12/18/2006

Time Sea-Level Adjusted Pressure Absolute Pressure Temperature Relative Humidity Dew Point   
(mb) (inHg) (mb) (inHg) (C) (F) (%) (C) (F)
00:05 1023 30.21 852 25.16 -12.3 9.8 59 -18.9 -2
00:10 1023 30.21 852 25.16 -12.2 10.1 59 -18.7 -1.7
00:15 1023 30.21 852 25.16 -12.2 10 58 -19 -2.1
00:20 1023 30.21 852 25.16 -12.3 9.9 57 -19.1 -2.4
00:25 1023 30.21 852 25.16 -12.4 9.6 58 -19.1 -2.4
00:30 1023 30.21 852 25.16 -11.9 10.6 55 -19.2 -2.6
00:35 1023 30.21 852 25.16 -11.6 11 54 -19.2 -2.6
00:40 1023 30.21 852 25.16 -11.8 10.7 54 -19.3 -2.7
00:45 1023 30.21 852 25.16 -12.1 10.2 56 -19.2 -2.5
00:50 1023 30.21 852 25.16 -12.2 10.1 55 -19.4 -2.9
00:55 1023 30.21 852 25.16 -11.9 10.5 54 -19.5 -3
01:00 1023 30.21 852 25.16 -11.6 11.1 54 -19.2 -2.6
01:05 1023 30.21 852 25.16 -10.9 12.4 51 -19.2 -2.5
01:10 1023 30.21 852 25.16 -11.2 11.9 53 -19.1 -2.3
01:15 1023 30.21 852 25.16 -12 10.5 55 -19.3 -2.7
01:20 1023 30.21 852 25.16 -12.2 10.1 55 -19.5 -3.2
01:25 1023 30.21 852 25.16 -12.2 10.1 55 -19.4 -2.9
01:30 1023 30.21 852 25.16 -12.3 9.8 56 -19.4 -3
01:35 1023 30.21 853 25.19 -12.4 9.6 56 -19.4 -3
01:40 1023 30.21 853 25.19 -12.5 9.5 55 -19.7 -3.4
01:45 1023 30.21 853 25.19 -12.2 10 54 -19.7 -3.4
01:50 1023 30.21 853 25.19 -11.7 10.9 52 -19.7 -3.5
01:55 1023 30.21 853 25.19 -11.5 11.3 52 -19.4 -3
02:00 1023 30.21 853 25.19 -11.4 11.5 53 -19.2 -2.6
02:05 1023 30.21 853 25.19 -11.3 11.6 54 -18.9 -2
02:10 1023 30.21 853 25.19 -11.6 11.2 55 -18.9 -2
02:15 1023 30.21 853 25.19 -11.8 10.8 57 -18.8 -1.8
02:20 1024 30.24 853 25.19 -12.1 10.2 58 -18.8 -1.9
02:25 1024 30.24 853 25.19 -12.1 10.3 56 -19.3 -2.7
02:30 1024 30.24 853 25.19 -12 10.5 56 -19.1 -2.4
02:35 1024 30.24 853 25.19 -12.8 9 59 -19.2 -2.6
02:40 1024 30.24 853 25.19 -13.5 7.7 59 -19.9 -3.8
02:45 1024 30.24 853 25.19 -13.2 8.2 59 -19.7 -3.5
02:50 1024 30.24 853 25.19 -13 8.6 58 -19.7 -3.5
02:55 1024 30.24 853 25.19 -12.9 8.7 57 -19.7 -3.4
03:00 1024 30.24 853 25.19 -13 8.6 58 -19.7 -3.4
03:05 1024 30.24 853 25.19 -12.5 9.6 57 -19.3 -2.7
03:10 1024 30.24 853 25.19 -12.7 9.2 59 -19.2 -2.5
03:15 1024 30.24 854 25.22 -13.1 8.5 59 -19.4 -3
03:20 1024 30.24 854 25.22 -12.6 9.3 55 -19.8 -3.7
03:25 1024 30.24 854 25.22 -12.3 9.8 55 -19.5 -3.2
03:30 1024 30.24 854 25.22 -12.3 9.8 55 -19.7 -3.4
03:35 1025 30.27 854 25.22 -12.3 9.8 54 -19.8 -3.6
03:40 1025 30.27 854 25.22 -12.2 10 54 -19.6 -3.4
03:45 1025 30.27 854 25.22 -12.2 10.1 55 -19.5 -3.1
03:50 1025 30.27 854 25.22 -12 10.4 53 -19.7 -3.4
03:55 1025 30.27 854 25.22 -12.2 10.1 55 -19.6 -3.2
04:00 1025 30.27 854 25.22 -12.6 9.4 56 -19.6 -3.4
04:05 1025 30.27 854 25.22 -12.9 8.9 57 -19.8 -3.6
04:10 1025 30.27 854 25.22 -12.7 9.2 56 -19.7 -3.4
04:15 1025 30.27 854 25.22 -12.8 8.9 57 -19.7 -3.4
04:20 1025 30.27 854 25.22 -13.2 8.2 59 -19.6 -3.3
04:25 1025 30.27 854 25.22 -13 8.5 58 -19.7 -3.5
04:30 1025 30.27 854 25.22 -13.1 8.5 58 -19.7 -3.5
04:35 1025 30.27 854 25.22 -13.1 8.5 59 -19.6 -3.2
04:40 1025 30.27 854 25.22 -12.9 8.8 58 -19.6 -3.3
04:45 1025 30.27 854 25.22 -12.8 8.9 57 -19.6 -3.4
04:50 1025 30.27 854 25.22 -12.7 9.1 55 -20 -3.9
04:55 1025 30.27 854 25.22 -13.1 8.5 58 -19.7 -3.5
05:00 1025 30.27 854 25.22 -13.4 7.8 59 -19.9 -3.8
05:05 1025 30.27 854 25.22 -13.1 8.4 57 -20 -4
05:10 1025 30.27 854 25.22 -12.5 9.5 54 -19.9 -3.8
05:15 1025 30.27 854 25.22 -12.3 9.8 54 -19.9 -3.8
05:20 1025 30.27 854 25.22 -12.7 9.2 55 -19.9 -3.9
05:25 1025 30.27 854 25.22 -12.8 9 57 -19.7 -3.4
05:30 1025 30.27 854 25.22 -13 8.6 57 -19.7 -3.5
05:35 1025 30.27 855 25.25 -13.2 8.3 58 -19.8 -3.7
05:40 1025 30.27 854 25.22 -13.4 7.9 59 -19.8 -3.7
05:45 1025 30.27 855 25.25 -13.5 7.8 58 -20.1 -4.2
05:50 1026 30.3 855 25.25 -13.7 7.3 59 -20.1 -4.1
05:55 1026 30.3 855 25.25 -14 6.9 60 -20.1 -4.1
06:00 1026 30.3 855 25.25 -14 6.8 60 -20.1 -4.2
06:05 1026 30.3 855 25.25 -13.9 7 59 -20.3 -4.5
06:10 1026 30.3 855 25.25 -13.5 7.7 57 -20.2 -4.4
06:15 1026 30.3 855 25.25 -13 8.6 56 -20.1 -4.2
06:20 1026 30.3 855 25.25 -12.9 8.7 56 -19.9 -3.9
06:25 1026 30.3 855 25.25 -12.8 8.9 56 -20 -4
06:30 1026 30.3 855 25.25 -12.9 8.7 58 -19.6 -3.4
06:35 1026 30.3 855 25.25 -13.1 8.5 57 -19.9 -3.9
06:40 1026 30.3 855 25.25 -13.8 7.1 60 -20.1 -4.1
06:45 1026 30.3 855 25.25 -14.1 6.6 60 -20.3 -4.6
06:50 1026 30.3 855 25.25 -13.3 8.1 57 -20 -4.1
06:55 1026 30.3 856 25.28 -13.4 7.9 58 -20 -4
07:00 1026 30.3 856 25.28 -13.4 7.9 58 -20 -3.9
07:05 1026 30.3 856 25.28 -13 8.6 56 -20.2 -4.3
07:10 1026 30.3 856 25.28 -12.9 8.8 56 -20 -4.1
07:15 1027 30.33 856 25.28 -12.9 8.8 56 -20.1 -4.1
07:20 1027 30.33 856 25.28 -13.3 8.1 57 -20 -4
07:25 1027 30.33 856 25.28 -13.1 8.4 57 -20 -4.1
07:30 1027 30.33 856 25.28 -13 8.5 56 -20 -4.1
07:35 1027 30.33 856 25.28 -12.9 8.7 57 -19.9 -3.7
07:40 1027 30.33 856 25.28 -13.6 7.5 59 -20.1 -4.1
07:45 1027 30.33 856 25.28 -14.4 6.2 61 -20.3 -4.6
07:50 1027 30.33 856 25.28 -14.7 5.5 62 -20.4 -4.7
07:55 1027 30.33 856 25.28 -14.7 5.5 62 -20.5 -4.8
08:00 1027 30.33 856 25.28 -14.3 6.2 63 -19.9 -3.8
08:05 1027 30.33 856 25.28 -13.7 7.3 60 -19.9 -3.8
08:10 1027 30.33 856 25.28 -13.1 8.5 56 -20.1 -4.2
08:15 1027 30.33 856 25.28 -13.4 7.9 58 -20 -4.1
08:20 1027 30.33 856 25.28 -13.5 7.7 58 -20 -4.1
08:25 1027 30.33 856 25.28 -13.3 8.1 57 -20.2 -4.3
08:30 1027 30.33 856 25.28 -13.3 8 57 -20.2 -4.3
08:35 1027 30.33 856 25.28 -12.9 8.7 55 -20.1 -4.2
08:40 1027 30.33 856 25.28 -12.1 10.2 52 -20.2 -4.4
08:45 1027 30.33 857 25.31 -12.9 8.7 56 -19.9 -3.9
08:50 1027 30.33 857 25.31 -13.3 8.1 56 -20.3 -4.5
08:55 1027 30.33 857 25.31 -13.6 7.5 57 -20.3 -4.6
09:00 1027 30.33 857 25.31 -13.3 8.1 55 -20.5 -4.9
09:05 1027 30.33 857 25.31 -12.5 9.5 53 -20.2 -4.3
09:10 1027 30.33 857 25.31 -12 10.5 52 -19.9 -3.8
09:15 1028 30.36 857 25.31 -12.1 10.3 53 -19.8 -3.7
09:20 1028 30.36 857 25.31 -11.9 10.7 52 -19.9 -3.8
09:25 1028 30.36 857 25.31 -11.4 11.6 50 -19.9 -3.7
09:30 1028 30.36 857 25.31 -10.9 12.5 47 -20 -4
09:35 1028 30.36 857 25.31 -10.3 13.4 45 -20 -4.1
09:40 1028 30.36 857 25.31 -9.9 14.3 45 -19.6 -3.3
09:45 1028 30.36 857 25.31 -9.3 15.2 43 -19.6 -3.3
09:50 1028 30.36 857 25.31 -9.1 15.6 43 -19.6 -3.3
09:55 1028 30.36 857 25.31 -8.9 16.1 42 -19.5 -3.1
10:00 1028 30.36 857 25.31 -8.9 15.9 42 -19.6 -3.3
10:05 1028 30.36 857 25.31 -8.7 16.3 41 -19.7 -3.4
10:10 1028 30.36 857 25.31 -8.5 16.8 41 -19.6 -3.2
10:15 1028 30.36 857 25.31 -8 17.5 39 -19.8 -3.6
10:20 1028 30.36 857 25.31 -7.9 17.8 39 -19.6 -3.3
10:25 1028 30.36 857 25.31 -7.6 18.3 38 -19.7 -3.5
10:30 1028 30.36 857 25.31 -7.1 19.2 35 -20.1 -4.2
10:35 1028 30.36 857 25.31 -6.9 19.5 35 -19.9 -3.9
10:40 1028 30.36 857 25.31 -6.6 20.1 32 -20.7 -5.3
10:45 1028 30.36 857 25.31 -6.3 20.6 34 -19.7 -3.5
10:50 1028 30.36 857 25.31 -5.8 21.5 33 -19.7 -3.4
10:55 1028 30.36 857 25.31 -6.4 20.6 33 -20.3 -4.5
11:00 1028 30.36 857 25.31 -6.8 19.7 33 -20.5 -4.8
11:05 1028 30.36 857 25.31 -7.1 19.2 35 -20.2 -4.4
11:10 1028 30.36 857 25.31 -6.9 19.6 35 -20.1 -4.2
11:15 1028 30.36 857 25.31 -6.6 20 35 -19.8 -3.7
11:20 1027 30.33 857 25.31 -6.6 20.1 34 -20 -4
11:25 1027 30.33 857 25.31 -6.9 19.5 36 -19.5 -3.2
11:30 1027 30.33 857 25.31 -6.4 20.5 34 -19.8 -3.7
11:35 1027 30.33 856 25.28 -5.5 22.2 31 -20 -4
11:40 1027 30.33 856 25.28 -5.5 22 34 -19.1 -2.3
11:45 1027 30.33 856 25.28 -5.4 22.2 36 -18.4 -1.2
11:50 1027 30.33 856 25.28 -6.3 20.7 37 -18.6 -1.5
11:55 1027 30.33 856 25.28 -6.8 19.8 39 -18.6 -1.5
12:00 1027 30.33 856 25.28 -6.3 20.6 37 -18.9 -2
12:05 1027 30.33 856 25.28 -6 21.3 34 -19.5 -3.1
12:10 1027 30.33 856 25.28 -6.2 20.9 36 -18.8 -1.9
12:15 1027 30.33 856 25.28 -5.4 22.2 38 -17.5 0.4
12:20 1027 30.33 856 25.28 -5.1 22.7 41 -16.6 2.2
12:25 1026 30.3 856 25.28 -5.3 22.5 41 -16.7 2
12:30 1026 30.3 856 25.28 -5.7 21.7 43 -16.3 2.7
12:35 1026 30.3 855 25.25 -5.5 22.1 40 -17 1.5
12:40 1026 30.3 855 25.25 -4.9 23.3 39 -17 1.5
12:45 1026 30.3 855 25.25 -4.7 23.6 38 -17 1.4
12:50 1026 30.3 855 25.25 -5 23.1 39 -16.9 1.5
12:55 1026 30.3 855 25.25 -5.2 22.7 40 -16.8 1.7
13:00 1026 30.3 855 25.25 -4.5 23.8 36 -17.5 0.5
13:05 1026 30.3 855 25.25 -4.6 23.8 35 -17.8 -0
13:10 1026 30.3 855 25.25 -4.1 24.6 35 -17.5 0.5
13:15 1026 30.3 855 25.25 -4.2 24.4 34 -18 -0.3
13:20 1026 30.3 855 25.25 -5.5 22.1 40 -17.3 0.9
13:25 1026 30.3 855 25.25 -5.5 22.1 38 -17.6 0.3
13:30 1026 30.3 855 25.25 -4.5 23.8 35 -17.8 -0
13:35 1026 30.3 855 25.25 -4.6 23.7 34 -18.1 -0.6
13:40 1026 30.3 855 25.25 -5.2 22.7 34 -18.9 -2.1
13:45 1026 30.3 855 25.25 -5.7 21.8 35 -18.8 -1.8
13:50 1026 30.3 855 25.25 -4.8 23.4 32 -18.9 -2.1
13:55 1026 30.3 855 25.25 -4.1 24.5 32 -18.6 -1.5
14:00 1026 30.3 855 25.25 -3.9 25 34 -17.5 0.4
14:05 1026 30.3 855 25.25 -4.4 24.1 35 -17.7 0.2
14:10 1026 30.3 855 25.25 -3.9 25 34 -17.5 0.5
14:15 1026 30.3 855 25.25 -3.7 25.3 34 -17.4 0.6
14:20 1026 30.3 855 25.25 -3.3 26.1 34 -17.1 1.2
14:25 1026 30.3 855 25.25 -3.2 26.2 34 -17.1 1.2
14:30 1026 30.3 855 25.25 -3.5 25.7 33 -17.8 0
14:35 1026 30.3 855 25.25 -3.7 25.4 33 -17.7 0.2
14:40 1026 30.3 855 25.25 -3.8 25.2 34 -17.5 0.5
14:45 1026 30.3 855 25.25 -3.8 25.2 35 -17.2 1
14:50 1026 30.3 855 25.25 -4 24.7 35 -17.3 0.9
14:55 1026 30.3 855 25.25 -3.9 25 35 -17.2 1
15:00 1026 30.3 855 25.25 -3.6 25.5 35 -17 1.3
15:05 1026 30.3 855 25.25 -3.5 25.8 35 -16.9 1.6
15:10 1026 30.3 855 25.25 -3.4 25.9 35 -16.7 1.9
15:15 1025 30.27 855 25.25 -3.4 25.9 35 -16.7 1.9
15:20 1025 30.27 855 25.25 -3.3 26.1 35 -16.8 1.7
15:25 1025 30.27 855 25.25 -3.3 26.1 33 -17.3 0.8
15:30 1026 30.3 855 25.25 -3.7 25.3 32 -18.3 -1
15:35 1025 30.27 855 25.25 -4.2 24.4 34 -18.1 -0.5
15:40 1025 30.27 855 25.25 -4.5 24 33 -18.5 -1.3
15:45 1025 30.27 855 25.25 -4.4 24 34 -18 -0.5
15:50 1025 30.27 855 25.25 -4.9 23.2 34 -18.3 -1
15:55 1025 30.27 854 25.22 -4.8 23.4 35 -18 -0.3
16:00 1025 30.27 854 25.22 -5.5 22.1 39 -17.3 0.9
16:05 1025 30.27 854 25.22 -5.4 22.4 38 -17.7 0.1
16:10 1025 30.27 854 25.22 -5.2 22.6 35 -18.4 -1.2
16:15 1025 30.27 854 25.22 -5.8 21.6 39 -17.7 0.1
16:20 1025 30.27 854 25.22 -5.7 21.8 39 -17.7 0.2
16:25 1025 30.27 854 25.22 -5.5 22 38 -17.8 -0.1
16:30 1025 30.27 854 25.22 -5.7 21.8 40 -17.2 1
16:35 1025 30.27 854 25.22 -6.3 20.7 44 -16.8 1.8
16:40 1025 30.27 854 25.22 -6.6 20.1 45 -16.6 2.1
16:45 1025 30.27 854 25.22 -6.8 19.8 45 -16.9 1.6
16:50 1025 30.27 854 25.22 -7.1 19.2 47 -16.7 1.9
16:55 1025 30.27 854 25.22 -7.4 18.7 48 -16.6 2.1
17:00 1025 30.27 854 25.22 -7.5 18.4 48 -16.7 1.9
17:05 1025 30.27 854 25.22 -7.6 18.3 48 -16.8 1.7
17:10 1025 30.27 854 25.22 -7.6 18.2 49 -16.6 2
17:15 1025 30.27 854 25.22 -7.8 17.9 48 -17 1.4
17:20 1025 30.27 854 25.22 -8 17.7 47 -17.5 0.5
17:25 1025 30.27 854 25.22 -8.1 17.4 48 -17.3 0.9
17:30 1025 30.27 854 25.22 -8.2 17.3 49 -17.1 1.2
17:35 1025 30.27 854 25.22 -8 17.6 49 -16.9 1.5
17:40 1025 30.27 854 25.22 -7.9 17.8 49 -16.8 1.7
17:45 1025 30.27 854 25.22 -8 17.6 51 -16.4 2.4
17:50 1025 30.27 854 25.22 -7.9 17.8 48 -17 1.3
17:55 1025 30.27 854 25.22 -7.8 18.1 47 -17.1 1.2
18:00 1025 30.27 854 25.22 -7.8 18 47 -17.3 0.8
18:05 1025 30.27 854 25.22 -7.6 18.2 46 -17.3 0.8
18:10 1025 30.27 854 25.22 -7.6 18.3 45 -17.6 0.4
18:15 1025 30.27 854 25.22 -7.6 18.4 45 -17.6 0.3
18:20 1025 30.27 854 25.22 -7.5 18.5 49 -16.4 2.6
18:25 1025 30.27 854 25.22 -7.5 18.5 52 -15.7 3.7
18:30 1025 30.27 854 25.22 -8 17.7 53 -15.8 3.5
18:35 1025 30.27 854 25.22 -8 17.6 51 -16.4 2.5
18:40 1025 30.27 854 25.22 -7.8 18 43 -18.3 -0.9
18:45 1025 30.27 854 25.22 -7.7 18.2 46 -17.3 0.8
18:50 1025 30.27 854 25.22 -7.6 18.3 48 -16.9 1.7
18:55 1025 30.27 854 25.22 -7.8 17.9 50 -16.6 2.1
19:00 1025 30.27 854 25.22 -8.6 16.5 54 -16.4 2.5
19:05 1025 30.27 854 25.22 -9.9 14.1 58 -16.7 1.9
19:10 1025 30.27 854 25.22 -10.3 13.5 55 -17.7 0.2
19:15 1025 30.27 854 25.22 -9.8 14.4 52 -18 -0.3
19:20 1025 30.27 854 25.22 -9.1 15.5 51 -17.6 0.3
19:25 1025 30.27 854 25.22 -8.9 16 52 -17 1.4
19:30 1025 30.27 854 25.22 -9 15.8 53 -17 1.5
19:35 1025 30.27 854 25.22 -9 15.8 52 -17.1 1.2
19:40 1025 30.27 854 25.22 -8.5 16.6 51 -16.9 1.6
19:45 1025 30.27 854 25.22 -8.4 16.9 52 -16.6 2.2
19:50 1025 30.27 854 25.22 -8.7 16.4 53 -16.7 2
19:55 1025 30.27 854 25.22 -9.1 15.6 55 -16.6 2.1
20:00 1025 30.27 854 25.22 -9.3 15.4 54 -17 1.3
20:05 1025 30.27 854 25.22 -9.1 15.7 55 -16.6 2.2
20:10 1025 30.27 854 25.22 -8.8 16.2 56 -16.2 2.9
20:15 1025 30.27 854 25.22 -8.6 16.6 52 -16.8 1.8
20:20 1025 30.27 854 25.22 -8.9 15.9 51 -17.3 0.8
20:25 1025 30.27 854 25.22 -9 15.7 54 -16.7 2
20:30 1025 30.27 854 25.22 -8.8 16.1 54 -16.5 2.4
20:35 1025 30.27 854 25.22 -8.7 16.3 53 -16.6 2.1
20:40 1025 30.27 854 25.22 -9.3 15.2 55 -16.9 1.6
20:45 1025 30.27 854 25.22 -9.5 15 56 -16.8 1.8
20:50 1025 30.27 854 25.22 -9.2 15.5 53 -17.1 1.3
20:55 1025 30.27 854 25.22 -9 15.7 48 -18.3 -0.9
21:00 1025 30.27 854 25.22 -9 15.8 45 -18.8 -1.8
21:05 1024 30.24 854 25.22 -8.8 16.2 46 -18.5 -1.4
21:10 1024 30.24 854 25.22 -9 15.8 45 -18.8 -1.9
21:15 1024 30.24 854 25.22 -8.9 16.1 43 -19.4 -2.9
21:20 1024 30.24 854 25.22 -8.4 16.9 40 -19.7 -3.5
21:25 1024 30.24 853 25.19 -8.6 16.6 42 -19.2 -2.6
21:30 1024 30.24 853 25.19 -8.9 16.1 45 -18.9 -1.9
21:35 1024 30.24 853 25.19 -8.3 17.1 45 -18.2 -0.7
21:40 1024 30.24 853 25.19 -7.9 17.8 44 -18 -0.5
21:45 1024 30.24 853 25.19 -8.3 17.1 46 -18.1 -0.6
21:50 1024 30.24 853 25.19 -8.7 16.4 47 -18.1 -0.5
21:55 1024 30.24 853 25.19 -8.6 16.6 47 -17.9 -0.3
22:00 1024 30.24 853 25.19 -7.9 17.8 42 -18.7 -1.7
22:05 1024 30.24 853 25.19 -7.7 18.2 43 -18.1 -0.7
22:10 1024 30.24 853 25.19 -7.9 17.7 44 -18.3 -0.9
22:15 1024 30.24 853 25.19 -8.4 16.8 44 -18.6 -1.5
22:20 1024 30.24 853 25.19 -8.4 17 44 -18.6 -1.4
22:25 1024 30.24 853 25.19 -8 17.7 46 -17.8 0
22:30 1024 30.24 853 25.19 -7.6 18.4 41 -18.6 -1.6
22:35 1024 30.24 853 25.19 -7.8 18 44 -18.2 -0.7
22:40 1024 30.24 853 25.19 -7.7 18.1 44 -17.9 -0.2
22:45 1024 30.24 853 25.19 -7.6 18.4 47 -17.1 1.2
22:50 1024 30.24 853 25.19 -7.7 18.1 45 -17.6 0.3
22:55 1024 30.24 853 25.19 -8.2 17.2 51 -16.6 2.1
23:00 1024 30.24 853 25.19 -8.3 17.1 50 -16.8 1.7
23:05 1024 30.24 853 25.19 -8.2 17.2 49 -17.2 1.1
23:10 1024 30.24 853 25.19 -8.5 16.7 50 -17.1 1.3
23:15 1024 30.24 853 25.19 -8.4 16.9 49 -17.3 0.8
23:20 1024 30.24 853 25.19 -8.4 16.9 48 -17.6 0.4
23:25 1024 30.24 853 25.19 -8.4 16.9 48 -17.5 0.5
23:30 1024 30.24 853 25.19 -8.1 17.5 51 -16.4 2.5
23:35 1024 30.24 853 25.19 -7.9 17.8 49 -16.8 1.8
23:40 1024 30.24 853 25.19 -8.1 17.4 52 -16.2 2.8
23:45 1024 30.24 853 25.19 -8.6 16.5 54 -16.3 2.7
23:50 1024 30.24 853 25.19 -8.9 16 56 -16.2 2.8
23:55 1024 30.24 853 25.19 -8.9 15.9 56 -16.3 2.7
24:00 1024 30.24 853 25.19 -9.4 15.2 57 -16.4 2.5